createdAt,value
2023-04-11T00:00:50.567Z,71.41
2023-04-11T00:03:30.246Z,71.19
2023-04-11T00:06:11.244Z,71.24
2023-04-11T00:08:51.092Z,71.33
2023-04-11T00:11:32.277Z,71.39
2023-04-11T00:14:09.941Z,71.64
2023-04-11T00:16:50.161Z,72.15
2023-04-11T00:19:30.154Z,72.42
2023-04-11T00:22:10.472Z,72.23
2023-04-11T00:24:50.864Z,72.36
2023-04-11T00:27:22.044Z,72.72
2023-04-11T00:30:01.718Z,73.00
2023-04-11T00:32:41.199Z,72.66
2023-04-11T00:35:20.634Z,72.22
2023-04-11T00:38:02.513Z,72.16
2023-04-11T00:40:42.343Z,72.75
2023-04-11T00:43:21.967Z,73.32
2023-04-11T00:45:59.910Z,72.72
2023-04-11T00:48:41.590Z,73.12
2023-04-11T00:51:24.037Z,73.47
2023-04-11T00:54:03.421Z,73.61
2023-04-11T00:56:43.184Z,73.66
2023-04-11T00:59:22.465Z,73.60
2023-04-11T01:02:02.222Z,73.49
2023-04-11T01:04:41.576Z,73.66
2023-04-11T01:07:22.056Z,73.37
2023-04-11T01:10:02.432Z,72.99
2023-04-11T01:12:33.748Z,72.49
2023-04-11T01:15:14.942Z,72.31
2023-04-11T01:17:55.785Z,72.51
2023-04-11T01:20:35.099Z,72.58
2023-04-11T01:23:16.725Z,72.24
2023-04-11T01:25:56.157Z,72.28
2023-04-11T01:28:34.720Z,72.15
2023-04-11T01:31:07.378Z,72.16
2023-04-11T01:33:47.870Z,72.49
2023-04-11T01:36:27.388Z,72.39
2023-04-11T01:39:07.757Z,72.61
2023-04-11T01:41:48.230Z,73.32
2023-04-11T01:44:29.111Z,73.57
2023-04-11T01:47:10.531Z,73.22
2023-04-11T01:49:51.019Z,73.93
2023-04-11T01:52:29.959Z,73.77
2023-04-11T01:55:00.196Z,73.08
2023-04-11T01:57:32.338Z,72.94
2023-04-11T02:00:12.005Z,72.92
2023-04-11T02:02:51.984Z,72.86
2023-04-11T02:05:31.656Z,72.90
2023-04-11T02:08:12.541Z,73.00
2023-04-11T02:10:51.806Z,73.24
2023-04-11T02:13:32.153Z,73.06
2023-04-11T02:16:24.695Z,72.80
2023-04-11T02:18:54.970Z,73.16
2023-04-11T02:21:32.494Z,72.94
2023-04-11T02:24:02.637Z,72.63
2023-04-11T02:26:43.319Z,72.59
2023-04-11T02:29:22.999Z,72.82
2023-04-11T02:32:02.300Z,73.03
2023-04-11T02:34:41.840Z,73.73
2023-04-11T02:37:22.124Z,73.72
2023-04-11T02:40:01.562Z,73.77
2023-04-11T02:42:37.531Z,74.15
2023-04-11T02:45:17.699Z,74.57
2023-04-11T02:47:57.301Z,74.59
2023-04-11T02:50:36.629Z,74.80
2023-04-11T02:53:16.813Z,75.38
2023-04-11T02:55:56.143Z,75.34
2023-04-11T02:58:39.512Z,75.24
2023-04-11T03:01:19.216Z,75.05
2023-04-11T03:03:58.505Z,74.80
2023-04-11T03:06:37.969Z,74.22
2023-04-11T03:09:17.496Z,74.28
2023-04-11T03:11:47.916Z,74.32
2023-04-11T03:14:19.371Z,74.25
2023-04-11T03:16:54.511Z,74.52
2023-04-11T03:19:34.092Z,74.28
2023-04-11T03:22:12.075Z,74.95
2023-04-11T03:24:52.185Z,75.33
2023-04-11T03:27:32.062Z,75.86
2023-04-11T03:30:13.238Z,76.05
2023-04-11T03:32:54.918Z,76.40
2023-04-11T03:35:34.315Z,76.52
2023-04-11T03:38:14.164Z,76.54
2023-04-11T03:40:51.600Z,76.30
2023-04-11T03:43:31.820Z,76.28
2023-04-11T03:46:11.640Z,76.78
2023-04-11T03:48:50.428Z,76.37
2023-04-11T03:51:29.146Z,76.19
2023-04-11T03:53:59.886Z,76.66
2023-04-11T03:56:38.973Z,77.55
2023-04-11T03:59:18.198Z,77.87
2023-04-11T04:01:56.767Z,77.95
2023-04-11T04:04:36.906Z,77.28
2023-04-11T04:07:18.463Z,76.86
2023-04-11T04:09:57.069Z,77.56
2023-04-11T04:12:35.881Z,77.13
2023-04-11T04:15:15.083Z,76.97
2023-04-11T04:17:54.319Z,77.21
2023-04-11T04:20:33.158Z,77.18
2023-04-11T04:23:14.352Z,76.63
2023-04-11T04:25:53.506Z,76.69
2023-04-11T04:28:23.996Z,76.86
2023-04-11T04:30:58.770Z,77.06
2023-04-11T04:33:36.799Z,76.89
2023-04-11T04:36:18.331Z,76.50
2023-04-11T04:39:02.411Z,76.45
2023-04-11T04:41:35.006Z,76.45
2023-04-11T04:44:16.318Z,76.21
2023-04-11T04:46:57.023Z,76.80
2023-04-11T04:49:35.629Z,77.03
2023-04-11T04:52:15.868Z,76.73
2023-04-11T04:54:58.266Z,76.56
2023-04-11T04:57:37.001Z,76.46
2023-04-11T05:00:17.331Z,76.27
2023-04-11T05:02:57.174Z,76.67
2023-04-11T05:05:36.838Z,76.70
2023-04-11T05:08:17.521Z,76.78
2023-04-11T05:10:47.907Z,76.93
2023-04-11T05:13:27.466Z,76.58
2023-04-11T05:16:07.191Z,76.12
2023-04-11T05:18:46.744Z,75.79
2023-04-11T05:21:27.063Z,75.58
2023-04-11T05:24:06.197Z,75.43
2023-04-11T05:26:44.664Z,75.48
2023-04-11T05:29:15.977Z,75.77
2023-04-11T05:31:55.548Z,75.38
2023-04-11T05:34:52.342Z,75.25
2023-04-11T05:37:32.684Z,75.15
2023-04-11T05:40:13.377Z,75.07
2023-04-11T05:42:51.809Z,74.24
2023-04-11T05:45:30.559Z,74.35
2023-04-11T05:48:10.697Z,74.33
2023-04-11T05:50:49.379Z,74.01
2023-04-11T05:53:28.007Z,73.79
2023-04-11T05:55:59.288Z,73.06
2023-04-11T05:58:38.525Z,72.24
2023-04-11T06:01:18.842Z,72.08
2023-04-11T06:03:58.037Z,70.73
2023-04-11T06:06:37.330Z,69.64
2023-04-11T06:09:15.842Z,66.54
2023-04-11T06:11:53.940Z,65.23
2023-04-11T06:14:24.193Z,62.14
2023-04-11T06:17:00.323Z,60.18
2023-04-11T06:19:39.501Z,58.81
2023-04-11T06:22:18.092Z,57.66
2023-04-11T06:24:57.953Z,55.13
2023-04-11T06:27:28.441Z,55.99
2023-04-11T06:30:07.840Z,55.64
2023-04-11T06:32:38.556Z,55.71
2023-04-11T06:35:20.865Z,53.96
2023-04-11T06:37:58.968Z,55.09
2023-04-11T06:40:30.414Z,53.87
2023-04-11T06:43:02.389Z,52.55
2023-04-11T06:45:40.613Z,52.58
2023-04-11T06:48:18.734Z,52.07
2023-04-11T06:50:56.693Z,51.95
2023-04-11T06:53:35.688Z,51.60
2023-04-11T06:56:14.869Z,51.33
2023-04-11T06:58:53.994Z,50.96
2023-04-11T07:01:41.152Z,50.61
2023-04-11T07:04:20.257Z,51.25
2023-04-11T07:06:59.658Z,50.97
2023-04-11T07:09:38.132Z,51.16
2023-04-11T07:12:16.895Z,50.91
2023-04-11T07:14:55.238Z,51.25
2023-04-11T07:17:26.557Z,50.87
2023-04-11T07:20:09.772Z,50.08
2023-04-11T07:22:52.633Z,49.87
2023-04-11T07:25:33.980Z,49.61
2023-04-11T07:28:13.244Z,49.11
2023-04-11T07:30:52.885Z,49.31
2023-04-11T07:33:23.484Z,48.96
2023-04-11T07:36:03.931Z,48.99
2023-04-11T07:38:34.939Z,48.53
2023-04-11T07:41:06.710Z,47.60
2023-04-11T07:43:45.136Z,47.74
2023-04-11T07:46:22.425Z,48.05
2023-04-11T07:49:01.341Z,48.39
2023-04-11T07:51:40.193Z,47.17
2023-04-11T07:54:19.988Z,46.19
2023-04-11T07:56:59.558Z,45.65
2023-04-11T07:59:38.283Z,45.71
2023-04-11T08:02:17.681Z,46.04
2023-04-11T08:04:48.892Z,45.61
2023-04-11T08:07:28.967Z,45.52
2023-04-11T08:10:07.830Z,45.26
2023-04-11T08:12:39.098Z,45.09
2023-04-11T08:15:19.546Z,44.38
2023-04-11T08:18:00.037Z,43.36
2023-04-11T08:20:30.557Z,42.91
2023-04-11T08:23:10.184Z,42.31
2023-04-11T08:25:44.269Z,42.09
2023-04-11T08:28:23.623Z,41.09
2023-04-11T08:31:05.454Z,40.92
2023-04-11T08:33:44.742Z,40.66
2023-04-11T08:36:24.344Z,40.81
2023-04-11T08:39:02.876Z,40.35
2023-04-11T08:41:39.825Z,40.51
2023-04-11T08:44:19.731Z,39.52
2023-04-11T08:46:58.632Z,39.67
2023-04-11T08:49:37.448Z,40.31
2023-04-11T08:52:15.896Z,40.22
2023-04-11T08:54:59.322Z,40.25
2023-04-11T08:57:38.568Z,40.20
2023-04-11T09:00:19.474Z,39.97
2023-04-11T09:03:11.243Z,40.26
2023-04-11T09:05:47.798Z,39.99
2023-04-11T09:08:40.460Z,41.06
2023-04-11T09:11:12.281Z,41.68
2023-04-11T09:13:46.347Z,41.43
2023-04-11T09:16:25.888Z,41.04
2023-04-11T09:19:04.128Z,40.66
2023-04-11T09:21:50.605Z,39.81
2023-04-11T09:24:35.181Z,38.99
2023-04-11T09:27:22.486Z,38.91
2023-04-11T09:29:55.816Z,38.99
2023-04-11T09:32:33.364Z,38.86
2023-04-11T09:35:26.635Z,38.89
2023-04-11T09:38:10.038Z,39.03
2023-04-11T09:40:53.317Z,39.65
2023-04-11T09:43:53.549Z,39.82
2023-04-11T09:46:26.817Z,38.92
2023-04-11T09:49:07.115Z,39.08
2023-04-11T09:51:47.154Z,37.54
2023-04-11T09:54:27.745Z,37.66
2023-04-11T09:57:07.021Z,37.38
2023-04-11T09:59:47.247Z,37.89
2023-04-11T10:02:24.761Z,37.41
2023-04-11T10:05:06.140Z,37.45
2023-04-11T10:07:52.979Z,37.65
2023-04-11T10:10:28.365Z,37.79
2023-04-11T10:13:26.293Z,37.61
2023-04-11T10:16:24.650Z,38.29
2023-04-11T10:19:02.264Z,39.88
2023-04-11T10:21:43.576Z,40.42
2023-04-11T10:24:24.333Z,40.36
2023-04-11T10:27:04.543Z,40.47
2023-04-11T10:29:51.572Z,40.20
2023-04-11T10:32:29.017Z,39.57
2023-04-11T10:35:25.434Z,39.76
2023-04-11T10:38:04.516Z,39.99
2023-04-11T10:40:37.637Z,39.86
2023-04-11T10:43:29.808Z,40.03
2023-04-11T10:46:29.342Z,40.32
2023-04-11T10:49:08.594Z,40.32
2023-04-11T10:51:48.628Z,41.06
2023-04-11T10:54:29.140Z,40.01
2023-04-11T10:57:08.385Z,39.42
2023-04-11T10:59:39.035Z,40.20
2023-04-11T11:02:22.327Z,40.54
2023-04-11T11:05:02.163Z,39.55
2023-04-11T11:07:43.072Z,39.89
2023-04-11T11:10:15.620Z,39.01
2023-04-11T11:13:01.932Z,38.49
2023-04-11T11:15:41.661Z,39.16
2023-04-11T11:18:20.837Z,39.02
2023-04-11T11:21:02.175Z,39.63
2023-04-11T11:23:40.679Z,39.46
2023-04-11T11:26:20.435Z,39.88
2023-04-11T11:29:00.525Z,40.22
2023-04-11T11:31:50.893Z,40.22
2023-04-11T11:34:33.601Z,39.72
2023-04-11T11:37:10.255Z,39.95
2023-04-11T11:39:50.550Z,40.26
2023-04-11T11:42:29.847Z,40.14
2023-04-11T11:45:17.904Z,39.91
2023-04-11T11:47:51.907Z,39.99
2023-04-11T11:50:32.618Z,39.96
2023-04-11T11:53:17.055Z,40.32
2023-04-11T11:55:53.380Z,40.15
2023-04-11T11:58:46.977Z,40.41
2023-04-11T12:01:19.762Z,40.19
2023-04-11T12:03:54.304Z,40.47
2023-04-11T12:06:34.444Z,40.20
2023-04-11T12:09:14.076Z,40.06
2023-04-11T12:11:56.493Z,39.80
2023-04-11T12:14:31.592Z,40.10
2023-04-11T12:17:11.754Z,40.36
2023-04-11T12:19:50.234Z,40.22
2023-04-11T12:22:28.390Z,40.32
2023-04-11T12:25:13.751Z,40.50
2023-04-11T12:27:51.717Z,40.59
2023-04-11T12:30:30.908Z,40.63
2023-04-11T12:33:10.588Z,39.82
2023-04-11T12:35:49.355Z,38.99
2023-04-11T12:38:28.057Z,39.00
2023-04-11T12:41:30.336Z,38.58
2023-04-11T12:44:02.759Z,38.15
2023-04-11T12:46:34.458Z,38.71
2023-04-11T12:49:12.214Z,38.08
2023-04-11T12:51:42.749Z,38.50
2023-04-11T12:54:22.309Z,38.78
2023-04-11T12:57:00.728Z,38.98
2023-04-11T12:59:39.582Z,39.55
2023-04-11T13:02:19.075Z,39.97
2023-04-11T13:05:00.557Z,40.29
2023-04-11T13:07:41.319Z,40.31
2023-04-11T13:10:20.198Z,40.75
2023-04-11T13:13:00.620Z,40.66
2023-04-11T13:15:47.096Z,40.34
2023-04-11T13:18:26.167Z,40.31
2023-04-11T13:21:06.156Z,40.62
2023-04-11T13:23:44.851Z,40.70
2023-04-11T13:26:24.058Z,40.87
2023-04-11T13:28:54.450Z,40.78
2023-04-11T13:31:34.913Z,40.98
2023-04-11T13:34:14.189Z,41.16
2023-04-11T13:36:53.415Z,41.73
2023-04-11T13:39:32.970Z,41.76
2023-04-11T13:42:12.638Z,41.82
2023-04-11T13:44:43.283Z,41.60
2023-04-11T13:47:15.038Z,40.84
2023-04-11T13:49:47.469Z,40.69
2023-04-11T13:52:27.629Z,40.82
2023-04-11T13:55:07.511Z,40.38
2023-04-11T13:57:46.506Z,40.49
2023-04-11T14:00:25.595Z,40.22
2023-04-11T14:03:04.523Z,40.36
2023-04-11T14:05:43.706Z,40.25
2023-04-11T14:08:22.693Z,40.00
2023-04-11T14:11:01.733Z,39.98
2023-04-11T14:13:40.973Z,39.93
2023-04-11T14:16:20.862Z,39.73
2023-04-11T14:19:00.364Z,39.82
2023-04-11T14:21:38.705Z,40.46
2023-04-11T14:24:20.120Z,40.83
2023-04-11T14:26:59.749Z,41.07
2023-04-11T14:29:37.909Z,41.20
2023-04-11T14:32:16.513Z,41.36
2023-04-11T14:34:54.305Z,40.87
2023-04-11T14:37:33.535Z,40.87
2023-04-11T14:40:12.446Z,41.18
2023-04-11T14:42:51.575Z,41.10
2023-04-11T14:45:30.427Z,41.27
2023-04-11T14:48:00.865Z,42.09
2023-04-11T14:50:35.778Z,41.47
2023-04-11T14:53:13.989Z,41.35
2023-04-11T14:55:52.465Z,40.57
2023-04-11T14:58:30.909Z,40.59
2023-04-11T15:01:02.372Z,40.75
2023-04-11T15:03:41.275Z,40.51
2023-04-11T15:06:19.659Z,40.94
2023-04-11T15:08:58.776Z,40.89
2023-04-11T15:11:36.600Z,40.88
2023-04-11T15:14:14.639Z,41.34
2023-04-11T15:16:52.811Z,41.38
2023-04-11T15:19:31.237Z,41.36
2023-04-11T15:22:11.553Z,41.74
2023-04-11T15:24:49.786Z,41.52
2023-04-11T15:27:20.169Z,41.57
2023-04-11T15:30:00.341Z,41.69
2023-04-11T15:32:36.503Z,41.39
2023-04-11T15:35:15.150Z,41.71
2023-04-11T15:37:52.772Z,41.88
2023-04-11T15:40:30.944Z,41.87
2023-04-11T15:43:11.096Z,42.07
2023-04-11T15:45:46.652Z,41.87
2023-04-11T15:48:23.967Z,42.54
2023-04-11T15:51:01.479Z,42.28
2023-04-11T15:53:38.806Z,42.53
2023-04-11T15:56:17.666Z,42.48
2023-04-11T15:58:56.007Z,42.50
2023-04-11T16:01:33.190Z,42.61
2023-04-11T16:04:11.645Z,42.69
2023-04-11T16:06:42.405Z,42.68
2023-04-11T16:09:19.188Z,42.81
2023-04-11T16:11:58.030Z,43.19
2023-04-11T16:14:38.449Z,43.24
2023-04-11T16:17:18.307Z,43.44
2023-04-11T16:19:57.830Z,43.68
2023-04-11T16:22:36.120Z,43.50
2023-04-11T16:25:16.579Z,43.59
2023-04-11T16:27:55.077Z,44.37
2023-04-11T16:30:28.471Z,44.65
2023-04-11T16:33:10.301Z,44.88
2023-04-11T16:35:49.329Z,44.90
2023-04-11T16:38:27.480Z,45.08
2023-04-11T16:41:02.721Z,45.60
2023-04-11T16:43:43.795Z,45.78
2023-04-11T16:46:23.684Z,46.21
2023-04-11T16:48:55.534Z,46.44
2023-04-11T16:51:36.966Z,46.28
2023-04-11T16:54:15.074Z,46.56
2023-04-11T16:56:53.938Z,46.80
2023-04-11T16:59:36.318Z,46.71
2023-04-11T17:02:16.738Z,47.12
2023-04-11T17:04:55.828Z,47.16
2023-04-11T17:07:35.270Z,47.32
2023-04-11T17:10:13.912Z,47.64
2023-04-11T17:12:44.892Z,47.34
2023-04-11T17:15:22.058Z,47.81
2023-04-11T17:18:00.349Z,47.70
2023-04-11T17:20:38.906Z,47.87
2023-04-11T17:23:16.646Z,47.87
2023-04-11T17:26:00.071Z,48.09
2023-04-11T17:28:38.906Z,47.99
2023-04-11T17:31:21.092Z,48.14
2023-04-11T17:34:00.294Z,48.14
2023-04-11T17:36:43.245Z,48.54
2023-04-11T17:39:23.005Z,48.56
2023-04-11T17:42:01.268Z,49.10
2023-04-11T17:44:41.418Z,48.92
2023-04-11T17:47:20.883Z,48.94
2023-04-11T17:50:00.156Z,48.64
2023-04-11T17:52:41.104Z,49.16
2023-04-11T17:55:21.525Z,49.20
2023-04-11T17:58:01.617Z,49.31
2023-04-11T18:00:55.001Z,49.91
2023-04-11T18:03:40.502Z,50.03
2023-04-11T18:06:20.147Z,50.19
2023-04-11T18:09:00.001Z,50.49
2023-04-11T18:11:42.518Z,50.72
2023-04-11T18:14:22.848Z,51.35
2023-04-11T18:17:02.520Z,51.20
2023-04-11T18:19:42.222Z,51.67
2023-04-11T18:22:22.039Z,51.58
2023-04-11T18:25:02.537Z,51.59
2023-04-11T18:27:42.664Z,52.22
2023-04-11T18:30:21.852Z,52.24
2023-04-11T18:33:01.074Z,51.99
2023-04-11T18:35:40.148Z,52.40
2023-04-11T18:38:19.380Z,52.67
2023-04-11T18:40:54.514Z,52.51
2023-04-11T18:43:26.956Z,52.69
2023-04-11T18:46:03.715Z,52.80
2023-04-11T18:48:42.418Z,52.79
2023-04-11T18:51:22.378Z,52.87
2023-04-11T18:54:00.964Z,53.27
2023-04-11T18:56:40.527Z,53.21
2023-04-11T18:59:24.927Z,53.30
2023-04-11T19:02:03.436Z,53.51
2023-04-11T19:04:44.154Z,53.31
2023-04-11T19:07:22.690Z,53.62
2023-04-11T19:10:00.956Z,53.57
2023-04-11T19:12:39.492Z,53.89
2023-04-11T19:15:18.445Z,53.58
2023-04-11T19:17:59.107Z,53.77
2023-04-11T19:20:38.822Z,53.73
2023-04-11T19:23:16.030Z,53.60
2023-04-11T19:25:55.094Z,53.86
2023-04-11T19:28:32.590Z,53.92
2023-04-11T19:31:10.951Z,54.57
2023-04-11T19:33:49.034Z,54.08
2023-04-11T19:36:26.985Z,54.32
2023-04-11T19:39:05.196Z,54.73
2023-04-11T19:41:47.895Z,54.52
2023-04-11T19:44:18.594Z,55.17
2023-04-11T19:46:51.934Z,55.14
2023-04-11T19:49:25.238Z,54.90
2023-04-11T19:52:03.966Z,55.71
2023-04-11T19:54:41.849Z,55.84
2023-04-11T19:57:19.830Z,56.12
2023-04-11T19:59:58.901Z,56.51
2023-04-11T20:02:37.964Z,56.38
2023-04-11T20:05:20.195Z,56.83
2023-04-11T20:07:58.598Z,56.84
2023-04-11T20:10:37.125Z,57.46
2023-04-11T20:13:14.953Z,57.03
2023-04-11T20:15:52.917Z,57.28
2023-04-11T20:18:30.861Z,57.22
2023-04-11T20:21:08.356Z,57.43
2023-04-11T20:23:45.756Z,57.41
2023-04-11T20:26:22.760Z,57.78
2023-04-11T20:29:00.948Z,58.02
2023-04-11T20:31:31.752Z,57.74
2023-04-11T20:34:09.274Z,58.45
2023-04-11T20:36:48.765Z,58.33
2023-04-11T20:39:26.283Z,59.30
2023-04-11T20:42:04.546Z,59.10
2023-04-11T20:44:37.211Z,58.70
2023-04-11T20:47:17.844Z,58.81
2023-04-11T20:49:56.484Z,59.00
2023-04-11T20:52:30.235Z,59.00
2023-04-11T20:55:09.053Z,58.96
2023-04-11T20:57:46.801Z,59.18
2023-04-11T21:00:20.294Z,59.16
2023-04-11T21:02:52.011Z,59.72
2023-04-11T21:05:27.393Z,59.30
2023-04-11T21:08:07.178Z,59.25
2023-04-11T21:10:45.574Z,59.39
2023-04-11T21:13:23.952Z,59.06
2023-04-11T21:16:01.761Z,58.97
2023-04-11T21:18:40.046Z,59.11
2023-04-11T21:21:19.285Z,59.30
2023-04-11T21:23:49.616Z,59.38
2023-04-11T21:26:29.000Z,59.46
2023-04-11T21:29:02.491Z,59.20
2023-04-11T21:31:33.325Z,59.16
2023-04-11T21:34:08.374Z,58.78
2023-04-11T21:36:46.745Z,58.52
2023-04-11T21:39:22.352Z,58.64
2023-04-11T21:42:01.588Z,59.18
2023-04-11T21:44:39.524Z,59.22
2023-04-11T21:47:20.076Z,59.22
2023-04-11T21:49:50.622Z,59.09
2023-04-11T21:52:31.378Z,59.79
2023-04-11T21:55:12.664Z,59.44
2023-04-11T21:57:51.332Z,59.74
2023-04-11T22:00:30.089Z,59.67
2023-04-11T22:03:12.339Z,60.07
2023-04-11T22:05:50.509Z,59.90
2023-04-11T22:08:29.738Z,60.02
2023-04-11T22:11:19.373Z,60.26
2023-04-11T22:13:58.786Z,60.62
2023-04-11T22:16:37.685Z,60.45
2023-04-11T22:19:21.063Z,60.59
2023-04-11T22:22:03.668Z,61.08
2023-04-11T22:24:41.947Z,61.79
2023-04-11T22:27:20.452Z,61.72
2023-04-11T22:30:02.653Z,61.75
2023-04-11T22:32:41.461Z,61.77
2023-04-11T22:35:20.340Z,62.18
2023-04-11T22:38:01.773Z,61.84
2023-04-11T22:40:41.532Z,61.87
2023-04-11T22:43:20.054Z,61.98
2023-04-11T22:46:00.736Z,62.78
2023-04-11T22:48:42.382Z,63.14
2023-04-11T22:51:22.315Z,63.66
2023-04-11T22:54:01.293Z,63.71
2023-04-11T22:56:39.401Z,63.99
2023-04-11T22:59:17.621Z,64.37
2023-04-11T23:01:55.897Z,65.17
2023-04-11T23:04:36.846Z,65.41
2023-04-11T23:07:17.231Z,65.59
2023-04-11T23:09:54.854Z,65.88
2023-04-11T23:12:33.312Z,66.21
2023-04-11T23:15:04.858Z,66.52
2023-04-11T23:17:44.077Z,67.18
2023-04-11T23:20:16.703Z,66.88
2023-04-11T23:22:51.196Z,66.90
2023-04-11T23:25:29.485Z,67.42
2023-04-11T23:28:08.920Z,67.43
2023-04-11T23:30:46.988Z,67.52
2023-04-11T23:33:25.988Z,68.08
2023-04-11T23:36:04.032Z,68.49
2023-04-11T23:38:42.242Z,68.26
2023-04-11T23:41:20.717Z,68.48
2023-04-11T23:44:00.010Z,68.81
2023-04-11T23:46:39.065Z,69.29
2023-04-11T23:49:16.818Z,69.34
2023-04-11T23:51:54.930Z,69.16
2023-04-11T23:54:33.119Z,69.86
2023-04-11T23:57:12.737Z,70.04
2023-04-11T23:59:50.947Z,70.83
